createdAt,value
2017-08-30T00:02:25.315Z,17.57
2017-08-30T00:04:52.944Z,16.00
2017-08-30T00:07:20.521Z,16.60
2017-08-30T00:09:48.193Z,16.00
2017-08-30T00:12:15.788Z,16.70
2017-08-30T00:14:43.352Z,15.80
2017-08-30T00:17:10.952Z,17.70
2017-08-30T00:19:39.287Z,17.13
2017-08-30T00:22:06.971Z,16.33
2017-08-30T00:24:46.499Z,17.80
2017-08-30T00:27:14.059Z,15.67
2017-08-30T00:29:41.667Z,17.33
2017-08-30T00:32:09.319Z,18.00
2017-08-30T00:34:36.918Z,17.77
2017-08-30T00:37:04.510Z,17.30
2017-08-30T00:39:32.837Z,16.90
2017-08-30T00:42:00.498Z,17.00
2017-08-30T00:44:28.099Z,18.33
2017-08-30T00:46:55.740Z,16.53
2017-08-30T00:49:23.310Z,17.90
2017-08-30T00:51:50.935Z,15.37
2017-08-30T00:54:18.560Z,15.20
2017-08-30T00:56:46.210Z,15.77
2017-08-30T00:59:13.789Z,18.20
2017-08-30T01:01:41.426Z,17.03
2017-08-30T01:04:09.735Z,14.87
2017-08-30T01:06:37.299Z,15.07
2017-08-30T01:09:05.172Z,16.87
2017-08-30T01:11:32.752Z,14.80
2017-08-30T01:14:00.367Z,15.30
2017-08-30T01:16:27.994Z,15.17
2017-08-30T01:18:56.440Z,14.10
2017-08-30T01:21:24.100Z,15.60
2017-08-30T01:23:51.744Z,14.27
2017-08-30T01:26:19.321Z,16.80
2017-08-30T01:28:46.930Z,15.23
2017-08-30T01:31:14.740Z,14.27
2017-08-30T01:33:42.355Z,15.00
2017-08-30T01:36:09.931Z,13.90
2017-08-30T01:38:37.576Z,13.40
2017-08-30T01:41:05.147Z,15.50
2017-08-30T01:43:32.769Z,12.67
2017-08-30T01:46:00.392Z,14.60
2017-08-30T01:48:27.987Z,14.13
2017-08-30T01:50:55.818Z,14.27
2017-08-30T01:53:23.449Z,14.40
2017-08-30T01:55:51.075Z,15.03
2017-08-30T01:58:18.666Z,14.90
2017-08-30T02:00:46.286Z,15.73
2017-08-30T02:03:13.876Z,15.10
2017-08-30T02:05:41.453Z,13.60
2017-08-30T02:08:09.123Z,14.30
2017-08-30T02:10:37.279Z,13.60
2017-08-30T02:13:04.897Z,15.10
2017-08-30T02:15:32.579Z,15.33
2017-08-30T02:18:00.159Z,14.90
2017-08-30T02:20:27.717Z,15.17
2017-08-30T02:22:55.382Z,16.03
2017-08-30T02:25:23.012Z,15.50
2017-08-30T02:27:50.628Z,13.90
2017-08-30T02:30:18.257Z,14.40
2017-08-30T02:32:45.854Z,15.67
2017-08-30T02:35:13.472Z,13.57
2017-08-30T02:37:41.132Z,14.90
2017-08-30T02:40:08.705Z,14.03
2017-08-30T02:42:36.293Z,16.43
2017-08-30T02:45:03.945Z,13.80
2017-08-30T02:47:31.545Z,14.40
2017-08-30T02:49:59.174Z,14.07
2017-08-30T02:52:27.098Z,14.03
2017-08-30T02:54:54.680Z,13.47
2017-08-30T02:57:22.809Z,14.90
2017-08-30T02:59:50.571Z,14.70
2017-08-30T03:02:18.178Z,13.73
2017-08-30T03:04:45.840Z,14.67
2017-08-30T03:07:13.749Z,13.10
2017-08-30T03:09:41.361Z,13.77
2017-08-30T03:12:08.972Z,13.63
2017-08-30T03:14:37.181Z,14.20
2017-08-30T03:17:04.760Z,14.07
2017-08-30T03:19:32.365Z,14.23
2017-08-30T03:21:59.962Z,14.40
2017-08-30T03:24:27.557Z,13.50
2017-08-30T03:26:55.585Z,12.63
2017-08-30T03:29:23.166Z,13.93
2017-08-30T03:31:50.764Z,14.00
2017-08-30T03:34:18.400Z,13.07
2017-08-30T03:36:46.467Z,12.97
2017-08-30T03:39:14.064Z,13.53
2017-08-30T03:41:43.812Z,12.17
2017-08-30T03:44:11.400Z,13.57
2017-08-30T03:46:38.983Z,13.30
2017-08-30T03:49:06.616Z,12.47
2017-08-30T03:51:34.233Z,13.70
2017-08-30T03:54:02.943Z,13.23
2017-08-30T03:56:31.108Z,13.10
2017-08-30T03:58:58.676Z,13.47
2017-08-30T04:01:26.604Z,12.37
2017-08-30T04:03:54.245Z,13.03
2017-08-30T04:06:21.921Z,13.67
2017-08-30T04:08:49.534Z,13.97
2017-08-30T04:11:17.194Z,13.47
2017-08-30T04:13:44.786Z,12.67
2017-08-30T04:16:12.420Z,13.90
2017-08-30T04:18:40.025Z,12.97
2017-08-30T04:21:07.636Z,13.40
2017-08-30T04:23:35.241Z,13.23
2017-08-30T04:26:02.872Z,13.47
2017-08-30T04:28:30.529Z,12.73
2017-08-30T04:30:58.144Z,14.37
2017-08-30T04:33:25.765Z,14.23
2017-08-30T04:35:53.401Z,13.70
2017-08-30T04:38:21.004Z,13.97
2017-08-30T04:40:49.459Z,14.37
2017-08-30T04:43:17.029Z,14.27
2017-08-30T04:45:44.605Z,15.30
2017-08-30T04:48:12.233Z,14.37
2017-08-30T04:50:39.906Z,14.93
2017-08-30T04:53:07.563Z,14.77
2017-08-30T04:55:35.190Z,15.53
2017-08-30T04:58:02.793Z,17.17
2017-08-30T05:00:30.450Z,15.23
2017-08-30T05:02:58.060Z,17.57
2017-08-30T05:05:25.761Z,18.33
2017-08-30T05:07:53.440Z,16.87
2017-08-30T05:10:21.026Z,18.40
2017-08-30T05:12:48.669Z,19.10
2017-08-30T05:15:16.284Z,18.53
2017-08-30T05:17:43.869Z,18.23
2017-08-30T05:20:11.492Z,18.73
2017-08-30T05:22:39.101Z,20.20
2017-08-30T05:25:06.736Z,18.87
2017-08-30T05:27:34.322Z,18.90
2017-08-30T05:30:01.957Z,20.37
2017-08-30T05:32:29.575Z,20.00
2017-08-30T05:34:57.174Z,18.90
2017-08-30T05:37:24.787Z,20.97
2017-08-30T05:39:52.428Z,20.90
2017-08-30T05:42:20.065Z,22.07
2017-08-30T05:44:47.677Z,21.77
2017-08-30T05:47:15.310Z,21.20
2017-08-30T05:49:43.379Z,20.90
2017-08-30T05:52:11.131Z,22.77
2017-08-30T05:54:38.736Z,21.30
2017-08-30T05:57:06.371Z,20.40
2017-08-30T05:59:34.022Z,21.30
2017-08-30T06:02:01.638Z,21.20
2017-08-30T06:04:29.453Z,22.40
2017-08-30T06:06:57.086Z,20.33
2017-08-30T06:09:25.631Z,20.50
2017-08-30T06:11:53.251Z,21.43
2017-08-30T06:14:20.895Z,19.20
2017-08-30T06:16:48.492Z,21.60
2017-08-30T06:19:16.085Z,19.60
2017-08-30T06:21:44.641Z,21.00
2017-08-30T06:24:12.329Z,19.20
2017-08-30T06:26:39.958Z,21.50
2017-08-30T06:29:07.622Z,21.40
2017-08-30T06:31:35.262Z,19.87
2017-08-30T06:34:03.328Z,22.83
2017-08-30T06:36:30.957Z,20.00
2017-08-30T06:38:58.576Z,20.83
2017-08-30T06:41:27.112Z,21.40
2017-08-30T06:43:54.791Z,21.27
2017-08-30T06:46:23.303Z,20.63
2017-08-30T06:48:50.908Z,21.40
2017-08-30T06:51:18.524Z,19.70
2017-08-30T06:53:46.142Z,21.70
2017-08-30T06:56:13.753Z,20.53
2017-08-30T06:58:41.471Z,20.70
2017-08-30T07:01:09.081Z,20.20
2017-08-30T07:03:36.700Z,21.23
2017-08-30T07:06:04.265Z,20.30
2017-08-30T07:08:32.015Z,20.47
2017-08-30T07:11:00.542Z,20.70
2017-08-30T07:13:28.131Z,20.70
2017-08-30T07:15:55.809Z,20.83
2017-08-30T07:18:23.536Z,20.10
2017-08-30T07:20:51.133Z,20.57
2017-08-30T07:23:18.914Z,19.13
2017-08-30T07:25:46.553Z,20.60
2017-08-30T07:28:14.189Z,19.13
2017-08-30T07:30:41.904Z,19.77
2017-08-30T07:33:09.650Z,19.93
2017-08-30T07:35:37.276Z,19.07
2017-08-30T07:38:05.645Z,19.67
2017-08-30T07:40:33.752Z,20.30
2017-08-30T07:43:01.441Z,20.50
2017-08-30T07:45:29.074Z,21.07
2017-08-30T07:47:56.713Z,20.13
2017-08-30T07:50:24.328Z,19.90
2017-08-30T07:52:51.950Z,19.10
2017-08-30T07:55:19.542Z,19.23
2017-08-30T07:57:47.153Z,20.27
2017-08-30T08:00:14.802Z,19.63
2017-08-30T08:02:42.483Z,20.70
2017-08-30T08:05:10.095Z,19.87
2017-08-30T08:07:37.727Z,19.27
2017-08-30T08:10:05.358Z,19.17
2017-08-30T08:12:32.953Z,18.00
2017-08-30T08:15:00.949Z,19.53
2017-08-30T08:17:28.602Z,20.80
2017-08-30T08:19:56.381Z,19.77
2017-08-30T08:22:24.941Z,19.33
2017-08-30T08:24:53.232Z,18.33
2017-08-30T08:27:20.834Z,20.50
2017-08-30T08:29:48.425Z,19.27
2017-08-30T08:32:16.788Z,20.20
2017-08-30T08:34:44.370Z,19.10
2017-08-30T08:37:13.228Z,17.27
2017-08-30T08:39:40.855Z,17.43
2017-08-30T08:42:08.487Z,20.77
2017-08-30T08:44:36.130Z,19.30
2017-08-30T08:47:03.710Z,19.57
2017-08-30T08:49:31.307Z,18.30
2017-08-30T08:51:59.507Z,16.33
2017-08-30T08:54:27.143Z,17.77
2017-08-30T08:56:54.729Z,18.93
2017-08-30T08:59:22.376Z,14.37
2017-08-30T09:01:50.006Z,13.97
2017-08-30T09:04:17.670Z,14.80
2017-08-30T09:06:45.267Z,14.47
2017-08-30T09:09:12.899Z,14.90
2017-08-30T09:11:40.536Z,15.83
2017-08-30T09:14:08.229Z,16.03
2017-08-30T09:16:35.873Z,14.33
2017-08-30T09:19:03.457Z,13.90
2017-08-30T09:21:31.129Z,14.17
2017-08-30T09:23:58.785Z,12.53
2017-08-30T09:26:26.414Z,11.93
2017-08-30T09:28:54.050Z,12.43
2017-08-30T09:31:21.640Z,12.93
2017-08-30T09:33:50.184Z,14.07
2017-08-30T09:36:17.814Z,15.03
2017-08-30T09:38:45.395Z,16.53
2017-08-30T09:41:12.986Z,15.70
2017-08-30T09:43:40.625Z,17.10
2017-08-30T09:46:08.212Z,16.90
2017-08-30T09:48:35.834Z,15.63
2017-08-30T09:51:03.433Z,18.80
2017-08-30T09:53:31.095Z,17.80
2017-08-30T09:55:58.733Z,21.03
2017-08-30T09:58:26.413Z,23.07
2017-08-30T10:00:54.028Z,20.83
2017-08-30T10:03:21.606Z,21.43
2017-08-30T10:05:49.239Z,21.50
2017-08-30T10:08:16.841Z,23.87
2017-08-30T10:10:44.451Z,23.53
2017-08-30T10:13:12.800Z,22.97
2017-08-30T10:15:40.409Z,24.60
2017-08-30T10:18:08.648Z,25.00
2017-08-30T10:20:36.261Z,25.70
2017-08-30T10:23:03.873Z,25.37
2017-08-30T10:25:31.474Z,28.93
2017-08-30T10:27:59.088Z,25.87
2017-08-30T10:30:26.701Z,26.80
2017-08-30T10:32:54.325Z,23.90
2017-08-30T10:35:21.937Z,25.40
2017-08-30T10:37:49.537Z,29.07
2017-08-30T10:40:17.159Z,26.00
2017-08-30T10:42:44.777Z,27.30
2017-08-30T10:45:12.725Z,27.40
2017-08-30T10:47:40.374Z,27.53
2017-08-30T10:50:08.045Z,31.40
2017-08-30T10:52:35.646Z,28.73
2017-08-30T10:55:03.881Z,28.97
2017-08-30T10:57:31.467Z,27.67
2017-08-30T10:59:59.097Z,29.33
2017-08-30T11:02:27.524Z,26.70
2017-08-30T11:04:55.144Z,27.37
2017-08-30T11:07:22.767Z,29.20
2017-08-30T11:09:50.450Z,30.17
2017-08-30T11:12:18.091Z,28.47
2017-08-30T11:14:45.659Z,27.53
2017-08-30T11:17:13.772Z,30.30
2017-08-30T11:19:41.391Z,28.63
2017-08-30T11:22:08.988Z,27.93
2017-08-30T11:24:37.359Z,28.60
2017-08-30T11:27:04.996Z,29.77
2017-08-30T11:29:32.613Z,28.27
2017-08-30T11:32:01.073Z,28.80
2017-08-30T11:34:28.691Z,29.37
2017-08-30T11:36:56.266Z,26.27
2017-08-30T11:39:24.042Z,24.90
2017-08-30T11:41:51.656Z,25.80
2017-08-30T11:44:19.272Z,26.20
2017-08-30T11:46:47.861Z,25.53
2017-08-30T11:49:15.572Z,23.33
2017-08-30T11:51:43.248Z,24.67
2017-08-30T11:54:11.770Z,23.90
2017-08-30T11:56:39.355Z,24.57
2017-08-30T11:59:06.935Z,22.80
2017-08-30T12:01:34.730Z,23.60
2017-08-30T12:04:02.286Z,23.57
2017-08-30T12:06:30.774Z,22.67
2017-08-30T12:08:58.837Z,22.50
2017-08-30T12:11:26.450Z,20.90
2017-08-30T12:13:54.097Z,22.57
2017-08-30T12:16:21.737Z,21.33
2017-08-30T12:18:49.363Z,21.53
2017-08-30T12:21:17.859Z,20.87
2017-08-30T12:23:45.467Z,20.20
2017-08-30T12:26:13.059Z,19.07
2017-08-30T12:28:40.670Z,21.00
2017-08-30T12:31:08.314Z,20.27
2017-08-30T12:33:36.277Z,19.03
2017-08-30T12:36:03.867Z,18.93
2017-08-30T12:38:37.134Z,20.37
2017-08-30T12:41:04.830Z,18.70
2017-08-30T12:43:32.504Z,17.17
2017-08-30T12:46:00.249Z,19.00
2017-08-30T12:48:28.873Z,18.33
2017-08-30T12:50:57.005Z,17.97
2017-08-30T12:53:25.016Z,16.93
2017-08-30T12:55:52.589Z,19.33
2017-08-30T12:58:20.170Z,18.70
2017-08-30T13:00:47.874Z,19.73
2017-08-30T13:03:15.503Z,21.00
2017-08-30T13:05:43.157Z,20.83
2017-08-30T13:08:10.814Z,19.33
2017-08-30T13:10:38.444Z,18.33
2017-08-30T13:13:06.028Z,17.87
2017-08-30T13:15:33.701Z,18.43
2017-08-30T13:18:01.306Z,20.30
2017-08-30T13:20:28.921Z,18.90
2017-08-30T13:22:56.916Z,17.23
2017-08-30T13:25:24.506Z,19.30
2017-08-30T13:27:52.099Z,18.33
2017-08-30T13:30:20.226Z,17.53
2017-08-30T13:32:47.827Z,18.43
2017-08-30T13:35:15.443Z,17.00
2017-08-30T13:37:43.072Z,17.37
2017-08-30T13:40:10.696Z,18.20
2017-08-30T13:42:38.272Z,18.50
2017-08-30T13:45:05.912Z,18.90
2017-08-30T13:47:33.508Z,17.83
2017-08-30T13:50:02.111Z,18.40
2017-08-30T13:52:29.696Z,19.10
2017-08-30T13:54:57.344Z,18.57
2017-08-30T13:57:25.781Z,20.97
2017-08-30T13:59:53.413Z,20.67
2017-08-30T14:02:21.057Z,19.60
2017-08-30T14:04:49.584Z,19.80
2017-08-30T14:07:17.194Z,21.07
2017-08-30T14:09:44.779Z,21.30
2017-08-30T14:12:12.390Z,21.43
2017-08-30T14:14:40.069Z,19.80
2017-08-30T14:17:07.664Z,20.50
2017-08-30T14:19:35.261Z,20.10
2017-08-30T14:22:02.937Z,20.30
2017-08-30T14:24:30.653Z,20.90
2017-08-30T14:26:58.853Z,18.23
2017-08-30T14:29:26.521Z,20.70
2017-08-30T14:31:54.128Z,18.60
2017-08-30T14:34:21.720Z,20.67
2017-08-30T14:36:49.344Z,20.27
2017-08-30T14:39:16.988Z,20.50
2017-08-30T14:41:44.610Z,17.40
2017-08-30T14:44:13.140Z,19.53
2017-08-30T14:46:40.779Z,18.30
2017-08-30T14:49:08.426Z,17.10
2017-08-30T14:51:36.068Z,17.07
2017-08-30T14:54:03.686Z,17.80
2017-08-30T14:56:31.386Z,16.50
2017-08-30T14:58:59.066Z,18.90
2017-08-30T15:01:26.693Z,17.20
2017-08-30T15:03:54.265Z,17.63
2017-08-30T15:06:21.896Z,16.17
2017-08-30T15:08:49.506Z,16.70
2017-08-30T15:11:17.144Z,18.10
2017-08-30T15:13:44.814Z,18.37
2017-08-30T15:16:12.420Z,19.00
2017-08-30T15:18:40.055Z,15.53
2017-08-30T15:21:07.722Z,17.53
2017-08-30T15:23:36.683Z,17.53
2017-08-30T15:26:04.327Z,17.60
2017-08-30T15:28:31.997Z,17.00
2017-08-30T15:30:59.588Z,16.23
2017-08-30T15:33:27.352Z,20.67
2017-08-30T15:35:55.007Z,18.03
2017-08-30T15:38:22.622Z,19.50
2017-08-30T15:40:50.223Z,18.33
2017-08-30T15:43:17.868Z,19.20
2017-08-30T15:45:46.570Z,18.57
2017-08-30T15:48:14.217Z,19.20
2017-08-30T15:50:41.849Z,18.30
2017-08-30T15:53:09.435Z,24.17
2017-08-30T15:55:37.028Z,20.70
2017-08-30T15:58:04.703Z,22.27
2017-08-30T16:00:32.305Z,23.33
2017-08-30T16:02:59.909Z,26.30
2017-08-30T16:05:27.571Z,25.20
2017-08-30T16:07:55.160Z,23.63
2017-08-30T16:10:22.754Z,23.80
2017-08-30T16:12:50.404Z,22.93
2017-08-30T16:15:18.024Z,23.87
2017-08-30T16:17:45.635Z,23.80
2017-08-30T16:20:13.311Z,24.30
2017-08-30T16:22:40.963Z,21.10
2017-08-30T16:25:08.567Z,23.10
2017-08-30T16:27:37.125Z,23.30
2017-08-30T16:30:05.313Z,23.67
2017-08-30T16:32:33.491Z,24.33
2017-08-30T16:35:01.112Z,23.97
2017-08-30T16:37:28.778Z,24.70
2017-08-30T16:39:56.377Z,24.97
2017-08-30T16:42:24.045Z,25.00
2017-08-30T16:44:52.136Z,22.17
2017-08-30T16:47:19.777Z,23.77
2017-08-30T16:49:47.413Z,23.27
2017-08-30T16:52:15.010Z,24.53
2017-08-30T16:54:42.631Z,25.40
2017-08-30T16:57:10.322Z,23.00
2017-08-30T16:59:37.916Z,25.03
2017-08-30T17:02:05.495Z,24.43
2017-08-30T17:04:33.134Z,25.47
2017-08-30T17:07:00.789Z,25.80
2017-08-30T17:09:28.406Z,23.80
2017-08-30T17:11:57.087Z,24.03
2017-08-30T17:14:24.926Z,24.67
2017-08-30T17:16:52.575Z,24.53
2017-08-30T17:19:21.390Z,22.93
2017-08-30T17:21:49.012Z,26.00
2017-08-30T17:24:16.598Z,26.07
2017-08-30T17:26:44.270Z,26.13
2017-08-30T17:29:11.954Z,26.83
2017-08-30T17:31:39.557Z,27.27
2017-08-30T17:34:07.245Z,27.37
2017-08-30T17:36:34.855Z,26.30
2017-08-30T17:39:02.478Z,25.93
2017-08-30T17:41:30.128Z,27.27
2017-08-30T17:43:57.746Z,26.50
2017-08-30T17:46:25.330Z,27.63
2017-08-30T17:48:53.074Z,27.70
2017-08-30T17:51:20.672Z,26.73
2017-08-30T17:53:48.270Z,27.93
2017-08-30T17:56:15.903Z,27.87
2017-08-30T17:58:43.492Z,27.13
2017-08-30T18:01:11.108Z,26.27
2017-08-30T18:03:38.750Z,24.77
2017-08-30T18:06:06.372Z,25.13
2017-08-30T18:08:33.994Z,25.83
2017-08-30T18:11:01.609Z,29.00
2017-08-30T18:13:29.197Z,25.17
2017-08-30T18:15:56.803Z,29.50
2017-08-30T18:18:24.466Z,30.67
2017-08-30T18:20:52.111Z,29.80
2017-08-30T18:23:19.722Z,30.60
2017-08-30T18:25:47.326Z,31.03
2017-08-30T18:28:14.930Z,32.60
2017-08-30T18:30:42.583Z,33.37
2017-08-30T18:33:10.188Z,31.70
2017-08-30T18:35:37.811Z,32.77
2017-08-30T18:38:05.495Z,34.10
2017-08-30T18:40:33.120Z,32.03
2017-08-30T18:43:00.755Z,34.30
2017-08-30T18:45:28.362Z,33.17
2017-08-30T18:47:55.982Z,32.93
2017-08-30T18:50:23.710Z,31.90
2017-08-30T18:52:51.369Z,36.17
2017-08-30T18:55:18.961Z,33.13
2017-08-30T18:57:46.623Z,35.43
2017-08-30T19:00:14.258Z,36.27
2017-08-30T19:02:41.866Z,35.63
2017-08-30T19:05:09.474Z,36.37
2017-08-30T19:07:37.806Z,38.10
2017-08-30T19:10:05.544Z,40.23
2017-08-30T19:12:33.261Z,37.63
2017-08-30T19:15:00.899Z,39.70
2017-08-30T19:17:28.597Z,39.73
2017-08-30T19:19:56.222Z,35.53
2017-08-30T19:22:23.839Z,38.33
2017-08-30T19:24:51.499Z,39.77
2017-08-30T19:27:19.122Z,38.87
2017-08-30T19:29:46.738Z,40.90
2017-08-30T19:32:14.371Z,43.50
2017-08-30T19:34:41.997Z,40.57
2017-08-30T19:37:09.598Z,39.60
2017-08-30T19:39:37.284Z,41.40
2017-08-30T19:42:04.886Z,40.20
2017-08-30T19:44:32.508Z,42.37
2017-08-30T19:47:00.139Z,42.03
2017-08-30T19:49:28.409Z,23.50
2017-08-30T19:51:56.013Z,22.87
2017-08-30T19:54:24.426Z,17.63
2017-08-30T19:56:52.043Z,12.90
2017-08-30T19:59:19.606Z,8.50
2017-08-30T20:01:47.209Z,7.63
2017-08-30T20:04:14.870Z,9.27
2017-08-30T20:06:42.481Z,9.30
2017-08-30T20:09:10.106Z,9.33
2017-08-30T20:11:37.711Z,11.80
2017-08-30T20:14:05.345Z,10.10
2017-08-30T20:16:32.965Z,10.07
2017-08-30T20:19:00.588Z,10.93
2017-08-30T20:21:28.395Z,10.97
2017-08-30T20:23:55.997Z,12.80
2017-08-30T20:26:23.651Z,11.43
2017-08-30T20:28:51.292Z,11.57
2017-08-30T20:31:19.469Z,11.60
2017-08-30T20:33:47.106Z,12.77
2017-08-30T20:36:14.791Z,12.60
2017-08-30T20:38:42.419Z,13.63
2017-08-30T20:41:10.003Z,13.83
2017-08-30T20:43:37.626Z,12.03
2017-08-30T20:46:05.238Z,13.27
2017-08-30T20:48:32.814Z,14.00
2017-08-30T20:51:00.443Z,14.77
2017-08-30T20:53:28.058Z,13.23
2017-08-30T20:55:55.664Z,13.93
2017-08-30T20:58:23.302Z,14.43
2017-08-30T21:00:51.101Z,13.97
2017-08-30T21:03:19.433Z,14.80
2017-08-30T21:05:47.167Z,15.00
2017-08-30T21:08:14.877Z,12.77
2017-08-30T21:10:42.509Z,12.67
2017-08-30T21:13:10.158Z,12.93
2017-08-30T21:15:37.798Z,13.77
2017-08-30T21:18:05.405Z,13.63
2017-08-30T21:20:33.084Z,12.70
2017-08-30T21:23:00.756Z,15.93
2017-08-30T21:25:28.385Z,20.00
2017-08-30T21:27:55.997Z,16.80
2017-08-30T21:30:23.950Z,14.67
2017-08-30T21:32:51.598Z,14.00
2017-08-30T21:35:19.224Z,15.00
2017-08-30T21:37:46.881Z,13.00
2017-08-30T21:40:14.486Z,18.67
2017-08-30T21:42:42.089Z,15.80
2017-08-30T21:45:09.763Z,28.77
2017-08-30T21:47:38.244Z,13.40
2017-08-30T21:50:05.914Z,14.07
2017-08-30T21:52:33.566Z,12.77
2017-08-30T21:55:01.153Z,9.90
2017-08-30T21:57:28.776Z,11.60
2017-08-30T21:59:56.379Z,12.13
2017-08-30T22:02:23.965Z,8.50
2017-08-30T22:04:51.573Z,8.63
2017-08-30T22:07:19.206Z,16.00
2017-08-30T22:09:46.794Z,8.43
2017-08-30T22:12:14.382Z,7.90
2017-08-30T22:14:42.015Z,9.60
2017-08-30T22:17:09.590Z,15.40
2017-08-30T22:19:37.194Z,6.57
2017-08-30T22:22:04.931Z,5.57
2017-08-30T22:24:32.591Z,6.23
2017-08-30T22:27:00.219Z,6.20
2017-08-30T22:29:27.816Z,3.80
2017-08-30T22:31:55.407Z,5.37
2017-08-30T22:34:23.072Z,5.13
2017-08-30T22:36:50.725Z,4.47
2017-08-30T22:39:18.386Z,5.17
2017-08-30T22:41:47.443Z,6.53
2017-08-30T22:44:15.054Z,4.90
2017-08-30T22:46:42.681Z,5.03
2017-08-30T22:49:11.196Z,5.10
2017-08-30T22:51:38.865Z,6.10
2017-08-30T22:54:06.474Z,5.77
2017-08-30T22:56:34.203Z,6.23
2017-08-30T22:59:01.867Z,7.17
2017-08-30T23:01:29.492Z,5.90
2017-08-30T23:03:57.116Z,6.43
2017-08-30T23:06:24.788Z,7.37
2017-08-30T23:08:52.413Z,8.40
2017-08-30T23:11:20.027Z,10.67
2017-08-30T23:13:47.705Z,10.43
2017-08-30T23:16:15.354Z,11.13
2017-08-30T23:18:43.006Z,11.53
2017-08-30T23:21:10.640Z,12.77
2017-08-30T23:23:38.234Z,14.30
2017-08-30T23:26:05.825Z,14.93
2017-08-30T23:28:34.243Z,15.23
2017-08-30T23:31:01.853Z,17.57
2017-08-30T23:33:29.539Z,15.77
2017-08-30T23:35:58.087Z,18.03
2017-08-30T23:38:25.688Z,18.80
2017-08-30T23:40:53.287Z,20.40
2017-08-30T23:43:20.900Z,18.10
2017-08-30T23:45:48.505Z,23.20
2017-08-30T23:48:16.100Z,22.97
2017-08-30T23:50:43.795Z,23.17
2017-08-30T23:53:11.362Z,26.20
2017-08-30T23:55:39.026Z,25.73
2017-08-30T23:58:06.639Z,26.97
